Time;durP1;ratioP1;P1;durP2;ratioP2;P2;SDS_P1;SDS_P2;PMS_P1;PMS_P2;Temp;Humidity;BMP_temperature;BMP_pressure;BME280_temperature;BME280_humidity;BME280_pressure;Samples;Min_cycle;Max_cycle;Signal;HPM_P1;HPM_P2
2021/12/30 00:01:05;;;;;;;41.67;29.75;;;;;;;4.75;73.22;101211.69;2081996;28;20162;-67
2021/12/30 00:02:05;;;;;;;40.90;29.67;;;;;;;4.11;73.31;101122.47;2082442;28;20246;-67
2021/12/30 00:03:08;;;;;;;42.00;31.23;;;;;;;4.63;73.66;101195.50;2082244;28;20170;-67
2021/12/30 00:04:09;;;;;;;42.17;30.17;;;;;;;4.80;73.83;101225.06;2081741;28;20224;-67
2021/12/30 00:05:10;;;;;;;41.97;30.57;;;;;;;4.78;73.43;101219.16;2081719;28;20229;-67
2021/12/30 00:06:17;;;;;;;43.60;31.17;;;;;;;4.80;73.79;101222.31;2081886;28;20725;-67
2021/12/30 00:07:17;;;;;;;42.75;29.90;;;;;;;4.77;73.36;101226.59;2081984;28;20191;-67
2021/12/30 00:08:19;;;;;;;38.47;29.00;;;;;;;4.62;73.61;101202.94;2081944;28;20187;-67
2021/12/30 00:09:20;;;;;;;41.72;29.77;;;;;;;4.77;73.81;101228.59;2081833;28;20264;-67
2021/12/30 00:10:20;;;;;;;41.93;28.90;;;;;;;3.48;73.82;101027.78;2080832;28;20190;-67
2021/12/30 00:11:22;;;;;;;38.60;29.27;;;;;;;4.09;73.63;101124.00;2081785;28;20186;-67
2021/12/30 00:12:23;;;;;;;37.38;28.33;;;;;;;4.56;73.79;101195.44;2081867;28;20178;-67
2021/12/30 00:13:23;;;;;;;39.60;28.53;;;;;;;4.78;73.56;101241.13;2081677;28;20559;-67
2021/12/30 00:14:24;;;;;;;38.23;28.70;;;;;;;4.28;73.71;101162.22;2081786;28;20176;-67
2021/12/30 00:15:25;;;;;;;40.47;30.53;;;;;;;4.65;74.28;101218.66;2081801;28;20184;-67
2021/12/30 00:16:25;;;;;;;39.43;28.93;;;;;;;4.02;73.52;101126.69;2081746;28;20187;-66
2021/12/30 00:17:26;;;;;;;37.37;28.73;;;;;;;4.31;73.84;101170.47;2081659;28;20784;-67
2021/12/30 00:18:27;;;;;;;36.73;27.63;;;;;;;4.73;74.09;101242.25;2081880;28;20185;-67
2021/12/30 00:19:27;;;;;;;35.83;26.50;;;;;;;4.73;74.14;101241.47;2081147;28;20178;-67
2021/12/30 00:20:28;;;;;;;37.87;25.80;;;;;;;4.70;73.96;101243.03;2080166;28;20201;-67
2021/12/30 00:21:29;;;;;;;35.63;25.83;;;;;;;4.68;73.69;101245.38;2081348;28;20178;-67
2021/12/30 00:22:29;;;;;;;36.90;26.90;;;;;;;4.53;73.75;101215.41;2081810;28;20175;-67
2021/12/30 00:23:30;;;;;;;35.60;26.10;;;;;;;4.69;74.16;101243.41;2081760;28;20236;-67
2021/12/30 00:24:31;;;;;;;37.67;26.17;;;;;;;4.25;74.17;101193.16;2081754;28;20687;-67
2021/12/30 00:25:38;;;;;;;37.17;26.07;;;;;;;3.46;74.05;101052.84;2081260;28;20221;-67
2021/12/30 00:26:38;;;;;;;36.42;26.10;;;;;;;3.80;73.60;101113.91;2080896;28;20243;-67
2021/12/30 00:27:39;;;;;;;37.00;26.57;;;;;;;4.70;74.11;101255.94;2081169;28;20192;-67
2021/12/30 00:28:40;;;;;;;37.05;27.42;;;;;;;4.70;73.83;101258.69;2081091;28;20183;-67
2021/12/30 00:29:40;;;;;;;33.83;26.27;;;;;;;4.67;74.20;101254.75;2081535;28;20184;-67
2021/12/30 00:30:42;;;;;;;35.23;26.30;;;;;;;4.67;74.33;101254.75;2080183;28;20646;-67
2021/12/30 00:31:42;;;;;;;36.15;27.45;;;;;;;4.69;74.27;101257.13;2081239;28;20680;-67
2021/12/30 00:32:43;;;;;;;36.03;27.10;;;;;;;4.72;74.09;101259.13;2081589;28;20556;-67
2021/12/30 00:33:43;;;;;;;35.60;26.80;;;;;;;4.70;73.94;101251.25;2081864;28;20175;-67
2021/12/30 00:34:44;;;;;;;35.40;26.23;;;;;;;4.49;74.42;101228.28;2081633;28;20180;-67
2021/12/30 00:35:45;;;;;;;35.93;26.93;;;;;;;4.70;73.95;101265.00;2081803;28;20274;-67
2021/12/30 00:36:45;;;;;;;37.27;27.07;;;;;;;4.73;73.38;101255.97;2081661;28;20682;-67
2021/12/30 00:37:46;;;;;;;34.20;26.33;;;;;;;3.52;73.72;101067.78;2081764;28;20182;-67
2021/12/30 00:38:46;;;;;;;34.33;25.97;;;;;;;4.75;74.03;101255.59;2081536;28;20174;-67
2021/12/30 00:39:47;;;;;;;33.17;25.00;;;;;;;4.72;74.12;101253.63;2081371;28;20184;-67
2021/12/30 00:40:48;;;;;;;33.43;24.77;;;;;;;4.75;73.94;101259.16;2080704;28;20177;-67
2021/12/30 00:41:48;;;;;;;31.77;23.73;;;;;;;4.78;73.80;101265.84;2081717;28;20176;-67
2021/12/30 00:42:49;;;;;;;30.27;23.20;;;;;;;3.69;73.57;101108.31;2081495;28;20552;-67
2021/12/30 00:43:49;;;;;;;31.57;24.07;;;;;;;4.79;73.79;101262.72;2081770;28;20200;-67
2021/12/30 00:44:50;;;;;;;32.10;23.20;;;;;;;4.80;73.94;101271.75;2081474;28;20170;-67
2021/12/30 00:45:51;;;;;;;30.83;23.43;;;;;;;4.81;73.92;101265.06;2081059;28;20186;-67
2021/12/30 00:46:52;;;;;;;29.90;22.67;;;;;;;4.80;74.08;101271.75;2080841;28;20250;-67
2021/12/30 00:47:52;;;;;;;29.30;22.37;;;;;;;4.85;73.60;101274.16;2081659;28;20232;-67
2021/12/30 00:48:53;;;;;;;29.33;21.67;;;;;;;4.48;73.56;101216.53;2081384;28;20213;-67
2021/12/30 00:49:53;;;;;;;27.23;20.90;;;;;;;4.87;74.12;101269.84;2081106;28;20182;-67
2021/12/30 00:50:54;;;;;;;27.00;20.53;;;;;;;3.55;73.67;101060.78;2080926;28;20176;-67
2021/12/30 00:51:55;;;;;;;27.23;21.23;;;;;;;4.90;73.68;101274.59;2081556;28;20180;-67
2021/12/30 00:52:58;;;;;;;26.00;19.20;;;;;;;4.85;73.52;101285.13;2081516;28;20175;-67
2021/12/30 00:53:59;;;;;;;24.40;19.15;;;;;;;4.90;73.30;101269.13;2081697;28;20211;-67
2021/12/30 00:54:59;;;;;;;26.50;19.03;;;;;;;4.94;73.48;101278.19;2081455;28;20172;-67
2021/12/30 00:56:01;;;;;;;26.73;19.43;;;;;;;4.95;73.33;101277.00;2081663;28;20174;-67
2021/12/30 00:57:01;;;;;;;24.35;18.95;;;;;;;4.72;73.60;101237.16;2081292;28;20635;-67
2021/12/30 00:58:03;;;;;;;24.60;18.57;;;;;;;4.94;72.93;101277.38;2081597;28;20183;-67
2021/12/30 00:59:04;;;;;;;26.15;19.13;;;;;;;4.91;72.72;101275.38;2081487;28;20370;-67
2021/12/30 01:00:07;;;;;;;24.57;18.77;;;;;;;4.89;72.72;101275.78;2081037;28;20171;-67
2021/12/30 01:01:08;;;;;;;28.25;19.45;;;;;;;4.86;73.24;101281.22;2081053;28;20273;-67
2021/12/30 01:02:08;;;;;;;24.10;18.73;;;;;;;3.44;73.28;101057.13;2081592;28;20695;-67
2021/12/30 01:03:09;;;;;;;28.73;20.47;;;;;;;4.85;73.56;101283.19;2081215;28;20668;-67
2021/12/30 01:04:10;;;;;;;23.40;18.30;;;;;;;4.81;73.51;101281.56;2036838;28;1295972;-67
2021/12/30 01:05:12;;;;;;;24.67;18.63;;;;;;;4.81;73.48;101282.34;2081755;28;20678;-67
2021/12/30 01:06:13;;;;;;;23.98;18.33;;;;;;;4.84;73.71;101284.34;2082050;28;20786;-67
2021/12/30 01:07:13;;;;;;;26.67;19.07;;;;;;;4.85;73.46;101290.63;2081886;28;20254;-67
2021/12/30 01:08:14;;;;;;;24.30;18.93;;;;;;;4.84;73.35;101289.06;2082019;28;20654;-67
2021/12/30 01:09:15;;;;;;;25.80;18.90;;;;;;;4.82;73.69;101292.16;2081781;28;20233;-67
2021/12/30 01:10:20;;;;;;;24.17;18.83;;;;;;;4.84;73.87;101294.53;2080934;28;20285;-67
2021/12/30 01:11:23;;;;;;;23.65;18.52;;;;;;;4.85;73.74;101296.13;2081913;28;20178;-67
2021/12/30 01:12:24;;;;;;;23.25;17.95;;;;;;;4.85;73.42;101293.38;2081686;28;20619;-67
2021/12/30 01:13:27;;;;;;;24.60;18.35;;;;;;;4.87;74.07;101297.31;2081819;28;20556;-67
2021/12/30 01:14:30;;;;;;;23.52;18.20;;;;;;;3.54;73.35;101092.84;2081816;28;20640;-67
2021/12/30 01:15:46;;;;;;;24.13;17.73;;;;;;;4.07;73.31;101173.78;2081896;28;20263;-67
2021/12/30 01:16:51;;;;;;;21.63;17.13;;;;;;;4.85;73.35;101296.91;2081605;28;20164;-67
2021/12/30 01:17:58;;;;;;;22.75;16.90;;;;;;;4.86;73.55;101294.94;2081917;28;20521;-67
2021/12/30 01:20:19;;;;;;;23.50;17.67;;;;;;;4.50;73.24;101243.59;2081001;28;20185;-67
2021/12/30 01:21:22;;;;;;;22.73;17.40;;;;;;;4.82;73.58;101316.88;2081798;28;20181;-67
2021/12/30 01:22:25;;;;;;;22.30;16.73;;;;;;;4.86;73.74;101301.25;2081771;28;20241;-67
2021/12/30 01:23:26;;;;;;;25.80;18.30;;;;;;;4.86;73.09;101294.94;2081661;28;20260;-67
2021/12/30 01:24:27;;;;;;;24.20;18.10;;;;;;;4.85;73.67;101296.13;2081737;28;20187;-67
2021/12/30 01:25:27;;;;;;;24.97;17.93;;;;;;;4.82;73.29;101300.41;2081054;28;20211;-67
2021/12/30 01:26:28;;;;;;;23.00;18.07;;;;;;;4.76;73.72;101279.16;2081131;28;20183;-67
2021/12/30 01:27:28;;;;;;;23.83;17.47;;;;;;;4.79;73.18;101295.69;2081712;28;20236;-67
2021/12/30 01:28:29;;;;;;;22.77;17.13;;;;;;;4.80;73.55;101300.00;2081595;28;20202;-67
2021/12/30 01:29:30;;;;;;;24.93;18.17;;;;;;;4.79;73.79;101292.94;2081680;28;20184;-67
2021/12/30 01:30:31;;;;;;;25.23;18.55;;;;;;;3.88;73.86;101154.75;2080931;28;20191;-67
2021/12/30 01:31:32;;;;;;;23.20;18.00;;;;;;;4.12;73.41;101194.59;2081691;28;20691;-67
2021/12/30 01:32:32;;;;;;;21.77;17.40;;;;;;;4.80;73.59;101297.25;2081161;28;20210;-67
2021/12/30 01:33:33;;;;;;;22.60;17.07;;;;;;;4.78;73.65;101298.81;2081437;28;20174;-67
2021/12/30 01:34:34;;;;;;;23.10;17.37;;;;;;;4.66;74.34;101291.59;2081651;28;20190;-67
2021/12/30 01:35:34;;;;;;;22.80;16.90;;;;;;;4.75;74.23;101300.34;2081809;28;20181;-67
2021/12/30 01:36:35;;;;;;;23.17;17.53;;;;;;;4.77;73.86;101303.50;2081566;28;20664;-67
2021/12/30 01:37:36;;;;;;;24.73;18.27;;;;;;;4.76;74.23;101306.59;2081742;28;20179;-67
2021/12/30 01:38:37;;;;;;;24.80;18.63;;;;;;;4.79;73.96;101300.38;2081463;28;20182;-67
2021/12/30 01:39:39;;;;;;;23.33;17.38;;;;;;;4.81;74.36;101300.78;2081360;28;20247;-67
2021/12/30 01:40:41;;;;;;;23.52;17.75;;;;;;;4.82;73.72;101300.41;2080731;28;20726;-67
2021/12/30 01:41:44;;;;;;;22.33;17.63;;;;;;;4.83;74.41;101301.22;2081791;28;20203;-67
2021/12/30 01:42:44;;;;;;;23.38;18.00;;;;;;;4.39;73.74;101231.72;2081424;28;20648;-67
2021/12/30 01:43:46;;;;;;;21.93;16.33;;;;;;;4.83;73.76;101309.44;2081730;28;20558;-67
2021/12/30 01:44:46;;;;;;;24.15;16.90;;;;;;;4.77;73.88;101300.75;2081409;28;20210;-67
2021/12/30 01:45:48;;;;;;;21.47;17.00;;;;;;;4.79;74.36;101311.34;2081703;28;20190;-67
2021/12/30 01:46:50;;;;;;;22.50;16.92;;;;;;;4.79;73.61;101305.88;2081416;28;20688;-67
2021/12/30 01:47:53;;;;;;;21.67;16.38;;;;;;;4.72;73.64;101298.34;2081625;28;20265;-67
2021/12/30 01:48:53;;;;;;;21.80;16.80;;;;;;;4.68;74.41;101294.00;2081440;28;20664;-67
2021/12/30 01:49:54;;;;;;;22.53;17.00;;;;;;;4.79;74.07;101305.88;2081187;28;20635;-67
2021/12/30 01:50:55;;;;;;;21.23;16.93;;;;;;;4.80;73.54;101308.25;2081018;28;20183;-67
2021/12/30 01:51:57;;;;;;;22.60;16.67;;;;;;;4.61;74.01;101307.66;2081461;28;20188;-67
2021/12/30 01:52:58;;;;;;;22.45;17.40;;;;;;;4.73;73.46;101304.63;2081237;28;20176;-67
2021/12/30 01:53:59;;;;;;;23.38;16.95;;;;;;;4.82;74.20;101316.09;2081537;28;20168;-67
2021/12/30 01:55:00;;;;;;;21.23;16.03;;;;;;;4.84;73.72;101316.50;2080687;28;20215;-67
2021/12/30 01:56:01;;;;;;;20.97;16.33;;;;;;;4.79;73.99;101319.59;2081107;28;20186;-67
2021/12/30 01:57:05;;;;;;;23.10;16.75;;;;;;;4.33;73.80;101255.97;2081190;28;20190;-67
2021/12/30 01:58:07;;;;;;;21.73;16.25;;;;;;;4.72;74.23;101323.03;2081380;28;20180;-67
2021/12/30 01:59:08;;;;;;;21.58;16.38;;;;;;;4.73;73.85;101323.84;2081514;28;20237;-67
2021/12/30 02:00:12;;;;;;;23.75;17.08;;;;;;;4.74;74.04;101334.47;2080694;28;20178;-67
2021/12/30 02:01:13;;;;;;;23.63;18.00;;;;;;;4.54;74.01;101297.38;2081272;28;20191;-67
2021/12/30 02:02:14;;;;;;;24.53;19.13;;;;;;;4.65;74.59;101324.94;2081312;28;20695;-67
2021/12/30 02:03:14;;;;;;;25.48;18.98;;;;;;;4.63;73.94;101330.81;2081256;28;20590;-67
2021/12/30 02:04:15;;;;;;;25.27;19.27;;;;;;;4.66;74.45;101330.03;2081445;28;20271;-67
2021/12/30 02:05:16;;;;;;;25.47;19.00;;;;;;;4.20;73.95;101273.84;2081392;28;20290;-67
2021/12/30 02:06:17;;;;;;;25.90;19.88;;;;;;;4.69;74.20;101339.50;2081272;28;20205;-67
2021/12/30 02:07:18;;;;;;;26.57;19.87;;;;;;;4.66;74.49;101340.25;2081357;28;20186;-67
2021/12/30 02:08:19;;;;;;;26.37;19.63;;;;;;;4.63;73.84;101333.56;2081522;28;20190;-67
2021/12/30 02:09:20;;;;;;;26.70;19.70;;;;;;;3.69;74.29;101201.50;2081314;28;20175;-67
2021/12/30 02:10:21;;;;;;;27.83;21.15;;;;;;;4.21;73.90;101280.13;2080034;28;20203;-67
2021/12/30 02:11:23;;;;;;;26.80;20.37;;;;;;;4.55;74.22;101342.88;2081346;28;20175;-67
2021/12/30 02:12:23;;;;;;;27.27;20.73;;;;;;;4.60;74.38;101336.25;2081235;28;20176;-67
2021/12/30 02:13:24;;;;;;;26.60;20.03;;;;;;;4.60;74.41;101338.97;2081332;28;20170;-67
2021/12/30 02:14:24;;;;;;;27.13;20.80;;;;;;;4.60;74.46;101341.72;2081306;28;20204;-67
2021/12/30 02:15:25;;;;;;;28.60;20.97;;;;;;;4.55;74.50;101340.13;2081327;28;20181;-67
2021/12/30 02:16:25;;;;;;;27.43;20.57;;;;;;;4.27;74.32;101293.09;2081187;28;20291;-67
2021/12/30 02:17:27;;;;;;;25.40;19.90;;;;;;;4.61;73.97;101344.09;2081276;28;20168;-67
2021/12/30 02:18:29;;;;;;;28.13;20.50;;;;;;;3.57;74.03;101174.34;2081310;28;20552;-67
2021/12/30 02:19:29;;;;;;;27.83;20.02;;;;;;;4.71;74.35;101342.63;2081269;28;20177;-67
2021/12/30 02:20:43;;;;;;;26.67;20.20;;;;;;;4.00;74.65;101253.19;2080193;28;20181;-67
2021/12/30 02:21:43;;;;;;;28.42;20.70;;;;;;;4.57;74.20;101348.75;2081522;28;20167;-67
2021/12/30 02:22:44;;;;;;;26.60;20.23;;;;;;;4.62;74.08;101348.44;2081091;28;20180;-67
2021/12/30 02:23:44;;;;;;;28.50;21.33;;;;;;;4.60;74.57;101350.78;2081304;28;20291;-67
2021/12/30 02:24:51;;;;;;;26.37;19.97;;;;;;;4.42;74.58;101313.31;2081274;28;20203;-67
2021/12/30 02:25:54;;;;;;;26.83;20.13;;;;;;;4.62;74.15;101353.91;2081389;28;20181;-67
2021/12/30 02:26:55;;;;;;;26.48;19.77;;;;;;;4.65;74.37;101357.88;2080483;28;20264;-67
2021/12/30 02:27:55;;;;;;;25.17;19.00;;;;;;;4.30;73.78;101299.81;2080442;28;20208;-67
2021/12/30 02:28:56;;;;;;;25.87;18.83;;;;;;;4.68;74.60;101357.94;2088705;28;20587;-67
2021/12/30 02:29:56;;;;;;;27.27;19.97;;;;;;;4.69;74.27;101356.75;2080740;28;20176;-67
2021/12/30 02:30:59;;;;;;;24.90;18.67;;;;;;;4.72;73.84;101352.47;2080599;28;20230;-67
2021/12/30 02:32:00;;;;;;;25.70;19.10;;;;;;;3.78;74.01;101204.75;2080654;28;20184;-67
2021/12/30 02:33:00;;;;;;;24.10;17.73;;;;;;;4.46;74.36;101309.41;2080505;28;20215;-67
2021/12/30 02:34:01;;;;;;;24.40;18.23;;;;;;;4.76;73.94;101358.78;2081276;28;20186;-67
2021/12/30 02:35:02;;;;;;;24.67;17.60;;;;;;;4.74;73.91;101355.63;2081233;28;20165;-67
2021/12/30 02:36:04;;;;;;;24.63;17.23;;;;;;;4.46;73.44;101309.41;2081292;28;20173;-67
2021/12/30 02:37:06;;;;;;;22.08;16.90;;;;;;;4.75;73.53;101354.47;2081104;28;20555;-67
2021/12/30 02:38:07;;;;;;;24.00;17.75;;;;;;;4.14;74.15;101252.59;2081192;28;20222;-67
2021/12/30 02:39:10;;;;;;;22.87;16.93;;;;;;;4.80;73.09;101351.38;2081253;28;20165;-67
2021/12/30 02:40:11;;;;;;;23.30;17.52;;;;;;;4.75;73.55;101357.19;2080491;28;20177;-67
2021/12/30 02:41:17;;;;;;;23.20;17.57;;;;;;;4.72;73.35;101363.47;2080790;28;20742;-67
2021/12/30 02:42:24;;;;;;;24.13;17.20;;;;;;;4.69;73.27;101354.00;2081137;28;20631;-67
2021/12/30 02:43:28;;;;;;;23.20;16.38;;;;;;;4.73;73.22;101356.78;2081041;28;20168;-67
2021/12/30 02:44:29;;;;;;;22.13;16.65;;;;;;;4.51;73.48;101324.78;2080970;28;20677;-67
2021/12/30 02:45:29;;;;;;;23.50;17.63;;;;;;;4.12;73.54;101261.22;2081125;28;20560;-67
2021/12/30 02:46:30;;;;;;;22.97;17.90;;;;;;;4.71;73.81;101353.63;2081099;28;20173;-67
2021/12/30 02:47:33;;;;;;;23.60;17.67;;;;;;;4.69;73.26;101362.25;2081152;28;20172;-67
2021/12/30 02:48:36;;;;;;;24.08;17.55;;;;;;;4.69;73.38;101359.50;2080964;28;20174;-67
2021/12/30 02:49:40;;;;;;;22.90;17.48;;;;;;;4.71;73.75;101361.84;2080927;28;20674;-67
2021/12/30 02:50:41;;;;;;;22.90;16.60;;;;;;;4.65;73.89;101349.63;2079867;28;20235;-67
2021/12/30 02:51:41;;;;;;;24.00;17.42;;;;;;;4.74;73.15;101361.13;2080981;28;20184;-67
2021/12/30 02:52:42;;;;;;;23.70;17.87;;;;;;;4.73;73.41;101362.28;2081068;28;20181;-67
2021/12/30 02:53:42;;;;;;;24.33;17.63;;;;;;;4.65;73.35;101352.38;2081267;28;20211;-67
2021/12/30 02:54:43;;;;;;;25.17;19.10;;;;;;;4.72;73.93;101363.47;2080872;28;20264;-67
2021/12/30 02:55:44;;;;;;;25.70;18.38;;;;;;;4.72;73.11;101368.94;2081202;28;20169;-67
2021/12/30 02:56:47;;;;;;;24.60;18.47;;;;;;;4.74;73.91;101367.41;2080944;28;20181;-67
2021/12/30 02:57:48;;;;;;;25.60;19.05;;;;;;;4.09;73.55;101283.88;2081110;28;20204;-67
2021/12/30 02:58:49;;;;;;;27.45;18.80;;;;;;;4.73;73.16;101370.53;2080791;28;20179;-67
2021/12/30 02:59:49;;;;;;;27.13;19.42;;;;;;;4.72;73.27;101368.94;2080826;28;20181;-67
2021/12/30 03:00:57;;;;;;;24.83;19.17;;;;;;;4.73;73.54;101367.78;2080339;28;20179;-67
2021/12/30 03:01:58;;;;;;;28.40;19.95;;;;;;;4.70;74.18;101371.25;2081286;28;20160;-67
2021/12/30 03:02:58;;;;;;;25.67;19.50;;;;;;;4.73;73.63;101374.03;2080929;28;20840;-67
2021/12/30 03:04:05;;;;;;;25.83;19.30;;;;;;;4.77;73.69;101374.09;2080925;28;20220;-67
2021/12/30 03:05:07;;;;;;;26.35;19.40;;;;;;;4.76;73.65;101369.75;2081026;28;20156;-67
2021/12/30 03:06:11;;;;;;;25.40;19.50;;;;;;;3.54;73.24;101188.00;2080997;28;20188;-67
2021/12/30 03:07:11;;;;;;;26.10;20.05;;;;;;;4.74;73.18;101367.41;2080304;28;20181;-67
2021/12/30 03:08:12;;;;;;;24.87;19.57;;;;;;;4.33;73.06;101310.03;2080560;28;20673;-67
2021/12/30 03:09:12;;;;;;;27.43;20.43;;;;;;;4.74;73.67;101372.09;2080870;28;20663;-67
2021/12/30 03:10:16;;;;;;;26.30;19.73;;;;;;;4.69;73.67;101377.94;2080238;28;20616;-67
2021/12/30 03:11:19;;;;;;;27.25;20.05;;;;;;;4.72;73.35;101379.94;2080799;28;20180;-67
2021/12/30 03:12:19;;;;;;;25.42;18.55;;;;;;;4.64;73.03;101367.28;2080945;28;20274;-67
2021/12/30 03:13:29;;;;;;;26.53;20.00;;;;;;;3.91;73.10;101249.19;2080939;28;20188;-67
2021/12/30 03:14:30;;;;;;;24.95;19.35;;;;;;;4.77;74.04;101382.34;2081105;28;20161;-67
2021/12/30 03:15:32;;;;;;;27.97;19.83;;;;;;;4.76;73.19;101380.75;2080344;28;20169;-67
2021/12/30 03:16:37;;;;;;;25.45;19.17;;;;;;;4.76;73.50;101378.81;2080330;28;20210;-67
2021/12/30 03:17:39;;;;;;;27.67;20.73;;;;;;;4.69;73.91;101375.19;2081112;28;20162;-67
2021/12/30 03:18:42;;;;;;;26.13;19.27;;;;;;;4.75;73.53;101392.91;2080904;28;20187;-67
2021/12/30 03:19:42;;;;;;;27.35;19.25;;;;;;;4.77;73.63;101388.63;2080839;28;20181;-67
2021/12/30 03:20:43;;;;;;;27.40;19.77;;;;;;;4.68;73.72;101377.16;2079570;28;20571;-67
2021/12/30 03:21:44;;;;;;;26.23;19.80;;;;;;;4.06;73.97;101281.09;2081076;28;20260;-67
2021/12/30 03:22:45;;;;;;;29.60;21.10;;;;;;;3.98;73.39;101271.19;2080852;28;20177;-67
2021/12/30 03:23:46;;;;;;;30.35;20.38;;;;;;;4.77;73.75;101393.34;2081084;28;20749;-67
2021/12/30 03:24:47;;;;;;;28.17;21.27;;;;;;;4.75;74.02;101401.94;2080815;28;20191;-67
2021/12/30 03:25:48;;;;;;;30.93;20.93;;;;;;;4.77;73.93;101401.56;2081120;28;20173;-67
2021/12/30 03:26:48;;;;;;;26.30;20.03;;;;;;;4.76;73.79;101403.50;2080737;28;20255;-67
2021/12/30 03:27:49;;;;;;;27.17;20.00;;;;;;;4.75;74.29;101410.19;2080922;28;20185;-67
2021/12/30 03:28:50;;;;;;;26.10;19.70;;;;;;;4.76;74.25;101402.72;2080050;28;20177;-67
2021/12/30 03:29:50;;;;;;;26.90;19.20;;;;;;;4.77;73.70;101407.84;2080003;28;20260;-67
2021/12/30 03:30:52;;;;;;;28.13;19.67;;;;;;;4.77;73.33;101415.28;2080122;28;20188;-67
2021/12/30 03:31:52;;;;;;;27.52;19.30;;;;;;;4.78;73.67;101411.38;2081007;28;20257;-67
2021/12/30 03:32:53;;;;;;;25.40;19.07;;;;;;;4.68;73.69;101406.56;2080835;28;20173;-67
2021/12/30 03:33:53;;;;;;;24.73;19.03;;;;;;;4.74;73.71;101414.09;2081095;28;20170;-66
2021/12/30 03:34:54;;;;;;;26.20;20.07;;;;;;;4.76;73.51;101416.44;2080683;28;20271;-66
2021/12/30 03:35:59;;;;;;;26.87;19.27;;;;;;;4.33;73.42;101349.25;2081070;28;20196;-66
2021/12/30 03:36:59;;;;;;;25.95;19.75;;;;;;;4.24;74.01;101335.03;2080843;28;20223;-66
2021/12/30 03:38:00;;;;;;;26.27;19.40;;;;;;;4.45;73.62;101381.16;2080933;28;20169;-66
2021/12/30 03:39:01;;;;;;;25.50;19.37;;;;;;;4.77;73.81;101420.78;2080686;28;20188;-66
2021/12/30 03:40:06;;;;;;;26.38;19.30;;;;;;;4.36;73.69;101355.97;2080291;28;20188;-67
2021/12/30 03:41:08;;;;;;;23.05;17.48;;;;;;;4.48;73.82;101378.47;2079934;28;20195;-67
2021/12/30 03:42:09;;;;;;;24.38;18.38;;;;;;;4.78;73.78;101427.84;2080288;28;20173;-67
2021/12/30 03:43:10;;;;;;;25.40;18.63;;;;;;;3.71;73.45;101262.25;2080992;28;20186;-67
2021/12/30 03:44:10;;;;;;;25.23;18.50;;;;;;;4.74;73.41;101432.50;2080768;28;20201;-67
2021/12/30 03:45:13;;;;;;;25.53;19.43;;;;;;;4.60;73.67;101413.91;2080897;28;20180;-66
2021/12/30 03:46:13;;;;;;;27.45;20.13;;;;;;;4.52;73.51;101401.25;2080834;28;20176;-67
2021/12/30 03:47:17;;;;;;;28.13;20.43;;;;;;;4.76;73.87;101430.16;2081097;28;20179;-67
2021/12/30 03:48:18;;;;;;;29.25;20.48;;;;;;;4.82;73.66;101434.19;2080931;28;20199;-67
2021/12/30 03:49:18;;;;;;;26.17;18.53;;;;;;;4.81;73.19;101433.38;2080878;28;20180;-67
2021/12/30 03:50:23;;;;;;;24.67;18.67;;;;;;;4.80;72.77;101433.75;2079744;28;20188;-67
2021/12/30 03:51:25;;;;;;;25.33;19.05;;;;;;;4.78;73.27;101430.59;2080976;28;20175;-67
2021/12/30 03:52:30;;;;;;;24.92;18.35;;;;;;;4.79;73.38;101438.47;2080793;28;20188;-67
2021/12/30 03:53:37;;;;;;;24.17;18.25;;;;;;;4.42;73.35;101387.41;2081022;28;20241;-67
2021/12/30 03:54:38;;;;;;;25.55;18.52;;;;;;;4.78;73.56;101441.59;2080685;28;20630;-67
2021/12/30 03:55:39;;;;;;;24.10;17.90;;;;;;;4.77;73.31;101437.25;2080936;28;20611;-67
2021/12/30 03:56:39;;;;;;;23.20;17.35;;;;;;;4.76;73.12;101433.72;2081966;28;20237;-67
2021/12/30 03:57:40;;;;;;;25.97;19.30;;;;;;;4.76;73.25;101438.41;2082431;28;20238;-67
2021/12/30 03:58:42;;;;;;;24.60;17.83;;;;;;;4.80;73.42;101442.00;2082286;28;20181;-67
2021/12/30 03:59:43;;;;;;;26.40;18.52;;;;;;;4.81;73.39;101436.13;2082155;28;20713;-67
2021/12/30 04:00:44;;;;;;;24.93;18.03;;;;;;;4.84;73.32;101442.84;2081348;28;20176;-67
2021/12/30 04:01:44;;;;;;;22.33;17.53;;;;;;;4.85;72.68;101445.22;2082587;28;20208;-67
2021/12/30 04:02:45;;;;;;;25.60;18.47;;;;;;;4.89;72.34;101446.06;2082257;28;20492;-67
2021/12/30 04:03:47;;;;;;;23.40;17.33;;;;;;;4.88;72.50;101441.69;2082141;28;20239;-67
2021/12/30 04:04:47;;;;;;;24.30;17.33;;;;;;;4.91;73.02;101448.41;2082075;28;20177;-67
2021/12/30 04:05:48;;;;;;;25.63;18.03;;;;;;;4.74;72.97;101432.50;2081713;28;20278;-67
2021/12/30 04:06:48;;;;;;;23.00;16.97;;;;;;;4.85;72.27;101455.41;2081506;28;20177;-66
2021/12/30 04:07:49;;;;;;;24.87;17.43;;;;;;;4.85;72.99;101466.38;2082425;28;20172;-67
2021/12/30 04:08:50;;;;;;;21.07;15.80;;;;;;;4.80;72.96;101442.78;2082356;28;20212;-67
2021/12/30 04:09:50;;;;;;;21.80;15.93;;;;;;;4.78;73.00;101458.84;2081824;28;20292;-67
2021/12/30 04:10:51;;;;;;;21.17;15.93;;;;;;;4.44;72.56;101402.31;2081507;28;20234;-67
2021/12/30 04:11:52;;;;;;;22.80;16.67;;;;;;;4.52;72.56;101417.72;2082483;28;20769;-67
2021/12/30 04:12:53;;;;;;;22.40;16.63;;;;;;;4.78;73.04;101455.31;2082203;28;20261;-67
2021/12/30 04:13:54;;;;;;;22.15;16.08;;;;;;;4.79;72.67;101456.91;2082363;28;20169;-67
2021/12/30 04:14:54;;;;;;;20.20;15.50;;;;;;;4.77;73.34;101467.47;2082047;28;20175;-67
2021/12/30 04:15:55;;;;;;;20.67;15.57;;;;;;;4.53;72.93;101448.72;2082178;28;20177;-67
2021/12/30 04:16:55;;;;;;;22.37;16.47;;;;;;;4.75;73.07;101467.84;2082047;28;20669;-67
2021/12/30 04:17:56;;;;;;;19.83;14.77;;;;;;;3.99;73.04;101344.06;2082252;28;20169;-67
2021/12/30 04:18:56;;;;;;;20.67;14.37;;;;;;;4.44;73.09;101409.75;2082037;28;20176;-67
2021/12/30 04:19:57;;;;;;;19.13;14.47;;;;;;;4.80;73.11;101467.50;2081597;28;20168;-67
2021/12/30 04:20:58;;;;;;;21.23;14.73;;;;;;;4.78;73.12;101475.31;2081470;28;20214;-67
2021/12/30 04:21:58;;;;;;;19.17;13.87;;;;;;;4.78;73.57;101478.06;2082245;28;20176;-67
2021/12/30 04:22:59;;;;;;;23.33;14.83;;;;;;;4.64;73.17;101455.94;2082103;28;20559;-67
2021/12/30 04:23:59;;;;;;;20.37;14.63;;;;;;;4.78;73.65;101480.81;2082207;28;20207;-67
2021/12/30 04:25:00;;;;;;;17.20;13.23;;;;;;;4.78;73.34;101485.53;2082039;28;20177;-67
2021/12/30 04:26:01;;;;;;;21.20;14.17;;;;;;;4.62;73.22;101463.72;2082219;28;20173;-67
2021/12/30 04:27:01;;;;;;;18.40;13.60;;;;;;;4.66;73.02;101469.28;2081920;28;20169;-67
2021/12/30 04:28:02;;;;;;;17.53;12.70;;;;;;;4.66;73.17;101464.56;2082252;28;20723;-67
2021/12/30 04:29:04;;;;;;;18.40;12.63;;;;;;;4.77;73.25;101492.97;2081976;28;20181;-67
2021/12/30 04:30:07;;;;;;;16.77;12.35;;;;;;;4.74;73.68;101480.00;2081340;28;20173;-67
2021/12/30 04:31:08;;;;;;;17.67;12.93;;;;;;;4.65;72.75;101473.97;2081519;28;20184;-67
2021/12/30 04:32:08;;;;;;;17.40;12.77;;;;;;;4.65;73.38;101470.44;2082088;28;20180;-67
2021/12/30 04:33:09;;;;;;;16.77;12.27;;;;;;;4.79;73.24;101495.34;2082103;28;20173;-67
2021/12/30 04:34:10;;;;;;;16.50;12.07;;;;;;;4.75;72.94;101498.03;2082100;28;20306;-67
2021/12/30 04:35:12;;;;;;;15.77;11.77;;;;;;;4.77;73.43;101508.66;2082086;28;20544;-67
2021/12/30 04:36:13;;;;;;;15.48;11.90;;;;;;;4.75;73.12;101503.53;2082082;28;20197;-67
2021/12/30 04:37:13;;;;;;;17.43;12.33;;;;;;;4.75;73.33;101505.47;2081987;28;20166;-67
2021/12/30 04:38:14;;;;;;;17.57;12.77;;;;;;;4.61;73.48;101483.34;2082094;28;20202;-67
2021/12/30 04:39:14;;;;;;;16.47;12.53;;;;;;;4.50;73.00;101468.66;2081969;28;20183;-67
2021/12/30 04:40:15;;;;;;;14.90;11.50;;;;;;;4.72;73.54;101503.50;2081076;28;20185;-67
2021/12/30 04:41:15;;;;;;;17.73;12.40;;;;;;;4.72;73.49;101512.50;2081939;28;20700;-67
2021/12/30 04:42:16;;;;;;;14.93;11.27;;;;;;;4.75;73.98;101511.78;2081948;28;20170;-67
2021/12/30 04:43:17;;;;;;;14.93;10.80;;;;;;;4.51;73.21;101483.97;2081876;28;20202;-67
2021/12/30 04:44:17;;;;;;;15.13;10.97;;;;;;;3.67;73.48;101359.25;2081892;28;20185;-67